Airfield :
LOGIN :

Register | Disclaimer

   EN    FR    IT 

 










Legend :    VFR   Marginal VFR   IFR   Intensive IFR   Very Intensive IFR
Visi :
Ceiling :
>= 8 km
>= 3000ft
5 to 8 km
1000 to 3000 ft
1500m to 5 km
500 to 1000 ft
800 to 1500m
200 to 500 ft
< 800m
< 200 ft
Symbols :   Thunderstorms  Fog  Heavy snow  Heavy precipitations  Wind > 20 kt
SIGMETs :     Misc.  Thunderstorms  Icing  Turbulence  Mountain Waves  Volcanic Ashes






- Airport Elevation : 38 ft
- IATA code : ADX


EGQL - RAF Leuchars

CURRENT METAR :
  • 231550Z 29019G30KT 9999 FEW025 07/01 Q1010 BLU

EXPIRED METARs :
  • 231459Z 28024G36KT 9999 FEW025 08/00 Q1008 BLU
  • 231450Z AUTO 28022KT 9999 NCD 08/00 Q1008
  • 231350Z 28023KT 9999 FEW030 07/00 Q1007 BLU
  • 231250Z 28024KT 9999 FEW025 07/M00 Q1005 BLU

TAF TAF EGQL
Valid from the 23 at 15:00 until the 24 at 00:00 UTC


231312Z 2315/2324 27022G32KT 9999 FEW030
BECMG 2316/2320 27010KT



MET'MAP, your aeronautical weather chart ! - Copyright ORBIFLY December 2007 - Disclaimer

ORBIFLY MET'MAP TEAM :

Programming & Development : Alexandra Zaïnal
Concept & original design : Baudouin d'Aumeries
Assistance for programming : Marc-Olivier Méhu
Technical & hardware support : Manuel Goepfert

Contact : metmap@orbifly.com




SOURCES & CREDITS :

   NOAA